createdAt,value
2019-03-18T00:00:31.553Z,20.43
2019-03-18T00:03:01.557Z,23.00
2019-03-18T00:05:30.957Z,23.90
2019-03-18T00:08:00.336Z,25.57
2019-03-18T00:10:29.739Z,25.90
2019-03-18T00:12:59.162Z,23.00
2019-03-18T00:15:28.708Z,17.17
2019-03-18T00:17:58.123Z,24.17
2019-03-18T00:20:27.554Z,23.57
2019-03-18T00:22:56.906Z,20.57
2019-03-18T00:25:26.261Z,27.30
2019-03-18T00:27:55.657Z,33.10
2019-03-18T00:30:25.077Z,26.20
2019-03-18T00:32:54.437Z,26.87
2019-03-18T00:35:23.817Z,26.73
2019-03-18T00:37:53.189Z,30.00
2019-03-18T00:40:22.638Z,38.77
2019-03-18T00:42:52.091Z,30.10
2019-03-18T00:45:21.448Z,31.33
2019-03-18T00:47:50.815Z,30.63
2019-03-18T00:50:20.184Z,32.93
2019-03-18T00:52:49.862Z,29.13
2019-03-18T00:55:19.241Z,29.50
2019-03-18T00:57:48.613Z,27.07
2019-03-18T01:00:18.106Z,30.03
2019-03-18T01:02:49.549Z,37.37
2019-03-18T01:05:18.960Z,32.00
2019-03-18T01:07:48.316Z,42.37
2019-03-18T01:10:17.850Z,30.73
2019-03-18T01:12:47.237Z,29.63
2019-03-18T01:15:27.261Z,33.87
2019-03-18T01:17:47.665Z,35.87
2019-03-18T01:20:17.030Z,35.70
2019-03-18T01:22:46.378Z,32.67
2019-03-18T01:25:15.750Z,33.43
2019-03-18T01:27:45.098Z,39.00
2019-03-18T01:30:14.794Z,34.30
2019-03-18T01:32:44.170Z,32.77
2019-03-18T01:35:13.512Z,29.80
2019-03-18T01:37:42.882Z,33.27
2019-03-18T01:40:12.287Z,28.27
2019-03-18T01:42:41.663Z,30.73
2019-03-18T01:45:11.332Z,29.80
2019-03-18T01:47:40.719Z,25.27
2019-03-18T01:50:10.278Z,29.30
2019-03-18T01:52:39.638Z,27.43
2019-03-18T01:55:09.203Z,27.93
2019-03-18T01:57:38.578Z,25.07
2019-03-18T02:00:08.583Z,27.17
2019-03-18T02:02:37.947Z,30.47
2019-03-18T02:05:07.384Z,30.23
2019-03-18T02:07:36.779Z,27.00
2019-03-18T02:10:07.098Z,33.73
2019-03-18T02:12:36.495Z,32.17
2019-03-18T02:15:06.455Z,26.57
2019-03-18T02:17:35.837Z,33.90
2019-03-18T02:20:05.660Z,26.10
2019-03-18T02:22:35.026Z,30.03
2019-03-18T02:25:04.717Z,32.83
2019-03-18T02:27:34.046Z,31.97
2019-03-18T02:30:03.432Z,30.87
2019-03-18T02:32:32.793Z,34.73
2019-03-18T02:35:02.155Z,30.40
2019-03-18T02:37:31.511Z,28.10
2019-03-18T02:40:00.867Z,29.93
2019-03-18T02:42:30.256Z,30.23
2019-03-18T02:44:59.612Z,28.30
2019-03-18T02:47:28.994Z,29.87
2019-03-18T02:49:58.369Z,24.53
2019-03-18T02:52:27.727Z,25.70
2019-03-18T02:54:57.104Z,21.83
2019-03-18T02:57:26.473Z,25.07
2019-03-18T02:59:55.897Z,24.93
2019-03-18T03:02:25.221Z,28.87
2019-03-18T03:04:54.643Z,22.27
2019-03-18T03:07:24.026Z,23.83
2019-03-18T03:09:53.398Z,20.00
2019-03-18T03:12:22.828Z,23.53
2019-03-18T03:14:52.242Z,24.73
2019-03-18T03:17:22.269Z,24.30
2019-03-18T03:19:51.684Z,24.07
2019-03-18T03:22:21.053Z,24.63
2019-03-18T03:24:50.430Z,24.80
2019-03-18T03:27:19.757Z,23.00
2019-03-18T03:29:49.160Z,28.03
2019-03-18T03:32:18.553Z,29.67
2019-03-18T03:34:47.971Z,22.60
2019-03-18T03:37:17.482Z,35.50
2019-03-18T03:39:46.845Z,23.27
2019-03-18T03:42:16.351Z,28.90
2019-03-18T03:44:45.759Z,28.70
2019-03-18T03:47:15.160Z,26.53
2019-03-18T03:49:44.592Z,23.30
2019-03-18T03:52:13.934Z,27.60
2019-03-18T03:54:43.319Z,30.93
2019-03-18T03:57:12.673Z,31.13
2019-03-18T03:59:42.198Z,26.00
2019-03-18T04:02:11.567Z,24.50
2019-03-18T04:04:41.150Z,30.13
2019-03-18T04:07:10.570Z,29.23
2019-03-18T04:09:39.934Z,26.53
2019-03-18T04:12:09.351Z,23.90
2019-03-18T04:14:38.720Z,24.67
2019-03-18T04:17:08.113Z,22.10
2019-03-18T04:19:37.472Z,26.23
2019-03-18T04:22:06.846Z,22.90
2019-03-18T04:24:36.222Z,30.23
2019-03-18T04:27:05.582Z,22.37
2019-03-18T04:29:34.965Z,24.00
2019-03-18T04:32:04.342Z,24.87
2019-03-18T04:34:33.734Z,30.07
2019-03-18T04:37:03.140Z,25.37
2019-03-18T04:39:32.517Z,19.90
2019-03-18T04:42:01.902Z,24.70
2019-03-18T04:44:31.316Z,21.67
2019-03-18T04:47:13.397Z,16.83
2019-03-18T04:49:31.779Z,21.90
2019-03-18T04:52:01.148Z,22.43
2019-03-18T04:54:30.501Z,21.00
2019-03-18T04:56:59.881Z,20.77
2019-03-18T04:59:29.250Z,19.87
2019-03-18T05:01:58.582Z,18.90
2019-03-18T05:04:27.941Z,16.60
2019-03-18T05:06:57.319Z,17.97
2019-03-18T05:09:26.715Z,20.10
2019-03-18T05:11:56.097Z,15.47
2019-03-18T05:14:25.534Z,16.60
2019-03-18T05:16:54.950Z,21.80
2019-03-18T05:19:24.329Z,25.60
2019-03-18T05:21:53.763Z,26.37
2019-03-18T05:24:23.151Z,33.87
2019-03-18T05:26:52.530Z,30.40
2019-03-18T05:29:21.903Z,29.63
2019-03-18T05:31:51.284Z,27.43
2019-03-18T05:34:20.695Z,20.27
2019-03-18T05:36:52.500Z,22.13
2019-03-18T05:39:21.899Z,27.33
2019-03-18T05:41:51.291Z,20.97
2019-03-18T05:44:20.666Z,27.93
2019-03-18T05:46:50.089Z,20.57
2019-03-18T05:49:19.473Z,26.03
2019-03-18T05:51:48.886Z,24.60
2019-03-18T05:54:18.272Z,23.43
2019-03-18T05:56:47.655Z,38.77
2019-03-18T05:59:16.991Z,30.23
2019-03-18T06:01:46.349Z,30.60
2019-03-18T06:04:15.706Z,32.70
2019-03-18T06:06:45.047Z,29.47
2019-03-18T06:09:14.430Z,29.43
2019-03-18T06:11:43.796Z,30.00
2019-03-18T06:14:13.214Z,32.07
2019-03-18T06:16:42.604Z,28.57
2019-03-18T06:19:12.033Z,26.07
2019-03-18T06:21:41.432Z,27.90
2019-03-18T06:24:10.806Z,22.80
2019-03-18T06:26:40.203Z,21.03
2019-03-18T06:29:09.593Z,24.07
2019-03-18T06:31:38.941Z,23.13
2019-03-18T06:34:08.331Z,20.60
2019-03-18T06:36:37.715Z,24.03
2019-03-18T06:39:07.983Z,18.80
2019-03-18T06:41:37.327Z,16.93
2019-03-18T06:44:06.718Z,28.97
2019-03-18T06:46:36.196Z,22.93
2019-03-18T06:49:05.552Z,19.07
2019-03-18T06:51:34.985Z,26.33
2019-03-18T06:54:04.478Z,25.80
2019-03-18T06:56:33.860Z,23.43
2019-03-18T06:59:03.253Z,19.57
2019-03-18T07:01:32.617Z,20.87
2019-03-18T07:04:01.980Z,19.60
2019-03-18T07:06:31.330Z,19.57
2019-03-18T07:09:00.712Z,22.30
2019-03-18T07:11:30.087Z,21.03
2019-03-18T07:13:59.445Z,26.67
2019-03-18T07:16:28.817Z,20.00
2019-03-18T07:18:58.225Z,20.83
2019-03-18T07:21:27.599Z,26.63
2019-03-18T07:23:56.960Z,19.37
2019-03-18T07:26:26.403Z,26.07
2019-03-18T07:28:55.770Z,21.00
2019-03-18T07:31:25.184Z,22.00
2019-03-18T07:33:54.574Z,21.23
2019-03-18T07:36:23.965Z,26.70
2019-03-18T07:38:53.357Z,27.73
2019-03-18T07:41:22.744Z,25.33
2019-03-18T07:43:52.171Z,22.73
2019-03-18T07:46:21.569Z,20.37
2019-03-18T07:48:51.047Z,23.10
2019-03-18T07:51:20.441Z,29.83
2019-03-18T07:53:49.802Z,21.47
2019-03-18T07:56:19.165Z,24.60
2019-03-18T07:58:48.527Z,28.53
2019-03-18T08:01:17.935Z,24.87
2019-03-18T08:03:47.424Z,23.57
2019-03-18T08:06:16.800Z,23.17
2019-03-18T08:08:46.182Z,29.07
2019-03-18T08:11:15.585Z,24.27
2019-03-18T08:13:44.986Z,25.57
2019-03-18T08:16:14.416Z,26.13
2019-03-18T08:18:43.840Z,23.70
2019-03-18T08:21:13.236Z,30.67
2019-03-18T08:23:42.567Z,21.40
2019-03-18T08:26:12.046Z,20.67
2019-03-18T08:28:41.420Z,24.00
2019-03-18T08:31:10.833Z,24.63
2019-03-18T08:33:40.258Z,18.83
2019-03-18T08:36:09.695Z,19.37
2019-03-18T08:38:39.078Z,17.90
2019-03-18T08:41:08.440Z,14.43
2019-03-18T08:43:37.806Z,16.20
2019-03-18T08:46:07.224Z,14.40
2019-03-18T08:48:36.593Z,16.90
2019-03-18T08:51:05.989Z,17.63
2019-03-18T08:53:35.419Z,17.00
2019-03-18T08:56:04.792Z,20.37
2019-03-18T08:58:34.186Z,15.27
2019-03-18T09:01:03.579Z,15.93
2019-03-18T09:03:32.999Z,16.20
2019-03-18T09:06:02.355Z,18.43
2019-03-18T09:08:31.738Z,22.70
2019-03-18T09:11:01.125Z,16.03
2019-03-18T09:13:32.065Z,16.03
2019-03-18T09:16:01.682Z,17.17
2019-03-18T09:18:31.075Z,18.97
2019-03-18T09:21:00.466Z,18.20
2019-03-18T09:23:29.894Z,15.97
2019-03-18T09:25:59.281Z,20.13
2019-03-18T09:28:28.688Z,17.47
2019-03-18T09:30:58.065Z,15.97
2019-03-18T09:33:27.446Z,20.43
2019-03-18T09:35:56.843Z,16.10
2019-03-18T09:38:26.224Z,14.53
2019-03-18T09:40:55.604Z,17.50
2019-03-18T09:43:24.996Z,20.33
2019-03-18T09:45:54.698Z,16.17
2019-03-18T09:48:24.177Z,16.93
2019-03-18T09:50:53.649Z,20.40
2019-03-18T09:53:23.051Z,16.67
2019-03-18T09:55:52.415Z,16.43
2019-03-18T09:58:21.809Z,20.20
2019-03-18T10:00:51.212Z,18.53
2019-03-18T10:03:20.577Z,16.87
2019-03-18T10:05:49.979Z,16.63
2019-03-18T10:08:19.342Z,17.97
2019-03-18T10:10:48.718Z,13.27
2019-03-18T10:13:18.124Z,11.53
2019-03-18T10:15:47.580Z,12.60
2019-03-18T10:18:16.961Z,11.70
2019-03-18T10:20:46.305Z,16.17
2019-03-18T10:23:15.717Z,16.33
2019-03-18T10:25:45.080Z,14.73
2019-03-18T10:28:16.538Z,14.38
2019-03-18T10:30:45.526Z,11.70
2019-03-18T10:33:14.877Z,13.75
2019-03-18T10:35:44.239Z,14.03
2019-03-18T10:38:13.598Z,13.43
2019-03-18T10:40:43.051Z,13.20
2019-03-18T10:43:12.468Z,12.33
2019-03-18T10:45:41.842Z,14.85
2019-03-18T10:48:11.204Z,10.23
2019-03-18T10:50:40.604Z,12.43
2019-03-18T10:53:09.992Z,12.95
2019-03-18T10:55:39.381Z,12.55
2019-03-18T10:58:08.783Z,13.62
2019-03-18T11:00:38.163Z,10.98
2019-03-18T11:03:07.526Z,11.85
2019-03-18T11:05:36.878Z,9.55
2019-03-18T11:08:06.249Z,10.20
2019-03-18T11:10:35.646Z,9.15
2019-03-18T11:13:05.028Z,11.12
2019-03-18T11:15:34.389Z,7.47
2019-03-18T11:18:03.757Z,8.35
2019-03-18T11:20:33.188Z,9.50
2019-03-18T11:23:02.555Z,7.80
2019-03-18T11:25:31.951Z,7.45
2019-03-18T11:28:01.330Z,8.83
2019-03-18T11:30:30.720Z,8.60
2019-03-18T11:33:00.084Z,7.20
2019-03-18T11:35:29.441Z,5.08
2019-03-18T11:37:58.820Z,6.53
2019-03-18T11:40:28.325Z,9.23
2019-03-18T11:42:57.732Z,7.30
2019-03-18T11:45:27.132Z,8.18
2019-03-18T11:47:56.479Z,6.67
2019-03-18T11:50:25.907Z,6.72
2019-03-18T11:52:55.374Z,8.45
2019-03-18T11:55:24.916Z,9.23
2019-03-18T11:57:55.246Z,8.75
2019-03-18T12:00:24.802Z,7.78
2019-03-18T12:02:54.848Z,5.50
2019-03-18T12:05:24.223Z,5.25
2019-03-18T12:07:53.609Z,5.92
2019-03-18T12:10:25.534Z,5.33
2019-03-18T12:12:54.901Z,5.80
2019-03-18T12:15:24.275Z,5.50
2019-03-18T12:17:53.695Z,5.25
2019-03-18T12:20:25.148Z,5.37
2019-03-18T12:22:54.261Z,5.97
2019-03-18T12:25:23.647Z,6.87
2019-03-18T12:27:53.014Z,7.08
2019-03-18T12:30:22.495Z,4.92
2019-03-18T12:32:51.962Z,5.55
2019-03-18T12:35:21.425Z,4.00
2019-03-18T12:37:50.779Z,3.12
2019-03-18T12:40:20.175Z,6.47
2019-03-18T12:42:49.545Z,5.35
2019-03-18T12:45:18.970Z,3.65
2019-03-18T12:47:48.482Z,6.87
2019-03-18T12:50:17.943Z,3.92
2019-03-18T12:52:47.430Z,7.55
2019-03-18T12:55:16.915Z,4.97
2019-03-18T12:57:46.333Z,4.00
2019-03-18T13:00:18.207Z,6.22
2019-03-18T13:02:47.603Z,6.95
2019-03-18T13:05:17.069Z,4.72
2019-03-18T13:07:46.518Z,7.58
2019-03-18T13:10:16.303Z,3.95
2019-03-18T13:12:45.699Z,3.72
2019-03-18T13:15:15.773Z,3.95
2019-03-18T13:17:45.178Z,5.75
2019-03-18T13:20:14.631Z,4.70
2019-03-18T13:22:44.012Z,4.00
2019-03-18T13:25:13.619Z,6.65
2019-03-18T13:27:43.234Z,4.10
2019-03-18T13:30:15.541Z,6.15
2019-03-18T13:32:45.053Z,6.80
2019-03-18T13:35:14.937Z,6.12
2019-03-18T13:37:44.325Z,4.12
2019-03-18T13:40:13.800Z,3.20
2019-03-18T13:42:43.198Z,7.25
2019-03-18T13:45:14.083Z,4.70
2019-03-18T13:47:44.058Z,3.77
2019-03-18T13:50:14.853Z,5.00
2019-03-18T13:52:44.310Z,5.75
2019-03-18T13:55:13.966Z,5.95
2019-03-18T13:57:43.309Z,8.25
2019-03-18T14:00:14.245Z,7.50
2019-03-18T14:02:43.700Z,6.03
2019-03-18T14:05:13.465Z,5.62
2019-03-18T14:07:42.823Z,4.53
2019-03-18T14:10:13.486Z,4.75
2019-03-18T14:12:42.894Z,4.17
2019-03-18T14:15:14.258Z,8.43
2019-03-18T14:17:43.638Z,8.40
2019-03-18T14:20:14.369Z,8.05
2019-03-18T14:22:43.899Z,9.88
2019-03-18T14:25:13.729Z,8.03
2019-03-18T14:27:43.123Z,7.90
2019-03-18T14:30:14.811Z,5.47
2019-03-18T14:32:44.230Z,6.83
2019-03-18T14:35:13.893Z,8.93
2019-03-18T14:37:43.322Z,6.40
2019-03-18T14:40:13.440Z,14.23
2019-03-18T14:42:43.601Z,12.63
2019-03-18T14:45:18.641Z,9.88
2019-03-18T14:47:48.038Z,4.60
2019-03-18T14:50:18.029Z,7.90
2019-03-18T14:52:47.625Z,5.03
2019-03-18T14:55:17.497Z,7.72
2019-03-18T14:57:46.886Z,2.40
2019-03-18T15:00:18.626Z,2.77
2019-03-18T15:02:47.964Z,4.85
2019-03-18T15:05:17.379Z,3.60
2019-03-18T15:07:46.882Z,4.33
2019-03-18T15:10:16.637Z,4.55
2019-03-18T15:12:46.048Z,5.42
2019-03-18T15:15:16.184Z,3.22
2019-03-18T15:17:45.655Z,4.53
2019-03-18T15:20:15.182Z,2.80
2019-03-18T15:22:47.618Z,1.82
2019-03-18T15:25:19.296Z,2.30
2019-03-18T15:27:48.725Z,2.22
2019-03-18T15:30:19.502Z,2.98
2019-03-18T15:32:49.125Z,4.33
2019-03-18T15:35:18.637Z,1.95
2019-03-18T15:37:47.990Z,3.02
2019-03-18T15:40:17.893Z,2.85
2019-03-18T15:42:47.223Z,3.10
2019-03-18T15:45:17.034Z,3.65
2019-03-18T15:47:46.434Z,2.02
2019-03-18T15:50:17.092Z,1.95
2019-03-18T15:52:46.511Z,5.37
2019-03-18T15:55:15.864Z,2.05
2019-03-18T15:57:45.265Z,2.25
2019-03-18T16:00:16.178Z,2.30
2019-03-18T16:02:45.562Z,2.80
2019-03-18T16:05:15.072Z,2.80
2019-03-18T16:07:44.594Z,5.40
2019-03-18T16:10:14.522Z,4.47
2019-03-18T16:12:44.026Z,2.80
2019-03-18T16:15:14.639Z,4.03
2019-03-18T16:17:44.112Z,3.67
2019-03-18T16:20:14.482Z,3.55
2019-03-18T16:22:44.084Z,2.22
2019-03-18T16:25:14.551Z,3.87
2019-03-18T16:27:43.983Z,4.87
2019-03-18T16:30:14.524Z,3.00
2019-03-18T16:32:43.946Z,5.27
2019-03-18T16:35:15.829Z,3.23
2019-03-18T16:37:45.053Z,5.10
2019-03-18T16:40:14.739Z,4.40
2019-03-18T16:42:44.133Z,4.87
2019-03-18T16:45:14.440Z,9.13
2019-03-18T16:47:43.849Z,7.27
2019-03-18T16:50:14.676Z,5.00
2019-03-18T16:52:44.085Z,6.73
2019-03-18T16:55:14.063Z,7.30
2019-03-18T16:57:43.439Z,11.40
2019-03-18T17:00:15.214Z,10.13
2019-03-18T17:02:44.869Z,8.13
2019-03-18T17:05:14.470Z,6.73
2019-03-18T17:07:44.336Z,9.87
2019-03-18T17:10:13.860Z,7.57
2019-03-18T17:12:43.527Z,9.93
2019-03-18T17:15:12.999Z,17.17
2019-03-18T17:17:42.370Z,8.93
2019-03-18T17:20:12.508Z,10.63
2019-03-18T17:22:48.986Z,10.60
2019-03-18T17:25:15.034Z,8.60
2019-03-18T17:27:44.557Z,8.47
2019-03-18T17:30:16.370Z,9.80
2019-03-18T17:32:45.880Z,6.07
2019-03-18T17:35:15.280Z,6.50
2019-03-18T17:37:44.753Z,6.70
2019-03-18T17:40:14.161Z,10.60
2019-03-18T17:42:43.623Z,6.93
2019-03-18T17:45:13.803Z,14.20
2019-03-18T17:47:43.281Z,8.63
2019-03-18T17:50:14.655Z,11.97
2019-03-18T17:52:44.081Z,7.60
2019-03-18T17:55:14.871Z,5.90
2019-03-18T17:57:44.229Z,6.57
2019-03-18T18:00:18.075Z,3.70
2019-03-18T18:02:47.513Z,3.53
2019-03-18T18:05:16.932Z,4.13
2019-03-18T18:07:46.378Z,4.13
2019-03-18T18:10:15.724Z,4.07
2019-03-18T18:12:45.138Z,4.37
2019-03-18T18:15:14.619Z,3.43
2019-03-18T18:17:44.008Z,3.70
2019-03-18T18:20:13.731Z,4.60
2019-03-18T18:22:43.111Z,4.53
2019-03-18T18:25:12.557Z,6.07
2019-03-18T18:27:41.966Z,6.97
2019-03-18T18:30:11.443Z,10.50
2019-03-18T18:32:40.793Z,9.00
2019-03-18T18:35:10.472Z,6.00
2019-03-18T18:37:39.957Z,7.57
2019-03-18T18:40:10.462Z,6.57
2019-03-18T18:42:39.878Z,6.53
2019-03-18T18:45:09.395Z,8.83
2019-03-18T18:47:38.819Z,10.20
2019-03-18T18:50:08.586Z,9.60
2019-03-18T18:52:38.060Z,6.23
2019-03-18T18:55:07.434Z,8.03
2019-03-18T18:57:36.779Z,8.07
2019-03-18T19:00:07.284Z,10.87
2019-03-18T19:02:36.638Z,7.37
2019-03-18T19:05:07.038Z,10.07
2019-03-18T19:07:36.446Z,10.83
2019-03-18T19:10:06.325Z,11.33
2019-03-18T19:12:38.060Z,16.73
2019-03-18T19:15:10.203Z,13.57
2019-03-18T19:17:39.548Z,12.77
2019-03-18T19:20:10.608Z,11.70
2019-03-18T19:22:39.984Z,15.47
2019-03-18T19:25:10.966Z,13.60
2019-03-18T19:27:40.358Z,14.53
2019-03-18T19:30:12.860Z,13.97
2019-03-18T19:32:42.249Z,19.73
2019-03-18T19:35:12.268Z,17.60
2019-03-18T19:37:42.230Z,19.87
2019-03-18T19:40:13.164Z,17.97
2019-03-18T19:42:42.577Z,18.33
2019-03-18T19:45:13.309Z,17.77
2019-03-18T19:47:44.478Z,16.07
2019-03-18T19:50:16.221Z,16.07
2019-03-18T19:52:45.706Z,18.53
2019-03-18T19:55:15.085Z,16.77
2019-03-18T19:57:44.512Z,15.97
2019-03-18T20:00:16.410Z,15.80
2019-03-18T20:02:46.028Z,25.37
2019-03-18T20:05:18.689Z,27.10
2019-03-18T20:07:46.543Z,16.53
2019-03-18T20:10:16.070Z,16.07
2019-03-18T20:12:45.597Z,13.07
2019-03-18T20:15:16.234Z,11.70
2019-03-18T20:17:45.676Z,14.47
2019-03-18T20:20:15.365Z,18.03
2019-03-18T20:22:45.484Z,21.97
2019-03-18T20:25:18.715Z,14.00
2019-03-18T20:27:48.122Z,19.13
2019-03-18T20:30:17.669Z,14.67
2019-03-18T20:32:47.071Z,19.13
2019-03-18T20:35:16.501Z,15.60
2019-03-18T20:37:45.933Z,21.83
2019-03-18T20:40:15.608Z,19.40
2019-03-18T20:42:45.242Z,18.27
2019-03-18T20:45:15.187Z,15.87
2019-03-18T20:47:44.814Z,16.23
2019-03-18T20:50:15.535Z,20.73
2019-03-18T20:52:45.034Z,21.07
2019-03-18T20:55:14.660Z,25.20
2019-03-18T20:57:44.191Z,18.00
2019-03-18T21:00:14.928Z,21.43
2019-03-18T21:02:44.765Z,17.77
2019-03-18T21:05:17.388Z,17.77
2019-03-18T21:07:46.948Z,19.90
2019-03-18T21:10:21.277Z,14.57
2019-03-18T21:12:50.733Z,19.77
2019-03-18T21:15:20.526Z,16.20
2019-03-18T21:17:49.959Z,16.80
2019-03-18T21:20:21.780Z,16.53
2019-03-18T21:22:51.153Z,16.03
2019-03-18T21:25:20.632Z,19.03
2019-03-18T21:27:50.674Z,15.53
2019-03-18T21:30:27.677Z,18.73
2019-03-18T21:32:57.210Z,16.30
2019-03-18T21:35:26.614Z,15.17
2019-03-18T21:37:58.805Z,23.10
2019-03-18T21:40:28.571Z,19.10
2019-03-18T21:42:58.008Z,15.80
2019-03-18T21:45:29.230Z,13.97
2019-03-18T21:47:58.622Z,18.50
2019-03-18T21:50:28.096Z,15.10
2019-03-18T21:52:57.517Z,17.77
2019-03-18T21:55:27.056Z,20.20
2019-03-18T21:57:56.507Z,21.67
2019-03-18T22:00:25.933Z,21.53
2019-03-18T22:02:55.318Z,19.23
2019-03-18T22:05:24.691Z,16.67
2019-03-18T22:07:54.105Z,18.90
2019-03-18T22:10:23.493Z,13.97
2019-03-18T22:12:52.876Z,11.60
2019-03-18T22:15:22.797Z,11.50
2019-03-18T22:17:52.175Z,20.93
2019-03-18T22:20:23.129Z,18.03
2019-03-18T22:22:52.627Z,14.33
2019-03-18T22:25:22.070Z,13.13
2019-03-18T22:27:52.903Z,8.00
2019-03-18T22:30:22.262Z,10.20
2019-03-18T22:32:51.692Z,16.63
2019-03-18T22:35:21.139Z,13.87
2019-03-18T22:37:50.581Z,14.17
2019-03-18T22:40:19.975Z,12.20
2019-03-18T22:42:49.341Z,14.67
2019-03-18T22:45:18.860Z,14.10
2019-03-18T22:47:48.357Z,17.13
2019-03-18T22:50:18.199Z,11.03
2019-03-18T22:52:47.622Z,16.33
2019-03-18T22:55:19.320Z,14.10
2019-03-18T22:57:48.711Z,14.17
2019-03-18T23:00:34.780Z,13.07
2019-03-18T23:03:04.573Z,15.97
2019-03-18T23:05:33.950Z,19.17
2019-03-18T23:08:03.453Z,11.83
2019-03-18T23:10:33.571Z,8.03
2019-03-18T23:13:02.930Z,11.60
2019-03-18T23:15:32.321Z,14.73
2019-03-18T23:18:01.719Z,11.13
2019-03-18T23:20:31.166Z,10.40
2019-03-18T23:23:00.573Z,13.30
2019-03-18T23:25:30.847Z,11.67
2019-03-18T23:28:00.238Z,8.33
2019-03-18T23:30:29.681Z,7.17
2019-03-18T23:32:59.099Z,7.17
2019-03-18T23:35:28.490Z,8.47
2019-03-18T23:37:57.877Z,8.27
2019-03-18T23:40:27.248Z,6.60
2019-03-18T23:42:56.665Z,8.60
2019-03-18T23:45:26.023Z,6.47
2019-03-18T23:47:55.801Z,8.43
2019-03-18T23:50:25.202Z,7.60
2019-03-18T23:52:54.600Z,9.37
2019-03-18T23:55:23.989Z,11.23
2019-03-18T23:57:54.477Z,7.90
